This is the latest recevied weather packets stored in our database for station/object K0PFX-8. If no packets are shown the sender has not sent any weather packets the latest 1 day(s).
| Time | Temp. | Humidity | Pressure | Rain* | Wind** | Luminosity | Snow |
|---|---|---|---|---|---|---|---|
| 1778120354 | 11.67° C | 62% | 1018.3 hPa | 0 mm | 0 m/s | - | - |
| 1778118555 | 12.22° C | 52% | 1017.8 hPa | 0 mm | 0 m/s | - | - |
| 1778117654 | 13.33° C | 50% | 1017.7 hPa | 0 mm | 0 m/s | - | - |
| 1778116761 | 13.33° C | 47% | 1017.3 hPa | 15.24 mm | 0 m/s | - | - |
| 1778116756 | 13.33° C | 47% | 1017.3 hPa | 0 mm | 0 m/s | - | - |
| 1778115855 | 13.89° C | 45% | 1017 hPa | 0 mm | 0 m/s | - | - |
| 1778114956 | 14.44° C | 44% | 1016.8 hPa | 0 mm | 0.45 m/s, 263° | - | - |
| 1778111357 | 15° C | 41% | 1016.5 hPa | 0 mm | 0.45 m/s, 17° | - | - |
| 1778109556 | 15.56° C | 36% | 1016.6 hPa | 0 mm | 1.79 m/s, 11° | - | - |
| 1778108655 | 15.56° C | 39% | 1016.5 hPa | 0 mm | 1.34 m/s, 179° | - | - |
| 1778105957 | 16.11° C | 35% | 1016.5 hPa | 0 mm | 1.79 m/s, 235° | - | - |
| 1778101457 | 16.67° C | 40% | 1016.8 hPa | 0 mm | 4.92 m/s, 211° | - | - |
| 1778092459 | 15° C | 33% | 1017.4 hPa | 0 mm | 2.68 m/s, 315° | - | - |
| 1778089761 | 15° C | 38% | 1017.6 hPa | 0 mm | 1.79 m/s, 359° | - | - |
| 1778087961 | 14.44° C | 44% | 1017.8 hPa | 0 mm | 2.68 m/s, 359° | - | - |
| 1778087060 | 13.89° C | 60% | 1017.7 hPa | 0 mm | 4.02 m/s, 249° | - | - |
| 1778084362 | 11.67° C | 83% | 1017.7 hPa | 0 mm | 4.02 m/s, 250° | - | - |
| 1778083461 | 11.67° C | 85% | 1017.5 hPa | 0 mm | 2.68 m/s, 288° | - | - |
| 1778081661 | 11.11° C | 90% | 1017.3 hPa | 0 mm | 0 m/s | - | - |
| 1778080763 | 10.56° C | 93% | 1017.1 hPa | 0 mm | 0 m/s | - | - |
| 1778076263 | 9.44° C | 100% | 1017.2 hPa | 0 mm | 2.68 m/s, 255° | - | - |
| 1778075365 | 9.44° C | 100% | 1016.8 hPa | 0 mm | 2.68 m/s, 273° | - | - |
| 1778074464 | 8.89° C | 100% | 1016.8 hPa | 0 mm | 3.13 m/s, 274° | - | - |
| 1778068167 | 8.33° C | 100% | 1016.4 hPa | 0.25 mm | 0.89 m/s, 239° | - | - |
| 1778066367 | 8.33° C | 100% | 1015.7 hPa | 0.25 mm | 2.24 m/s, 243° | - | - |
* Rain latest hour (hover to see other rain measurements)
** Current wind speed in m/s (hover to see current wind gust speed)